APL Coral — WDF6832 — position and weather

sailwx.info

Track history (hours):
 
Tides and Currents Weather Stations Pressure Air Temp Water Temp Dewpoint Dewpoint Depression Visibility Wind Speed Wind Dir Waves Ship Positions

APL Coral

Owner: APL Maritime Ltd., Bethesda, MD. More information available from US FCC via Universal Licensing System and Coast Guard Vessel Documentation Center.

Last reported at 2016-Aug-26 03:33 UTC. Time now 2016-Aug-26 06:36 UTC.
Position N 22°20' E 114°07'.

Length 275 m; draft 9.8 m.

Type: Cargo ship. MMSI: 367478280.

Date/timePositionNaut miles runAvg speedWind from/ knotsBaromVisibWave heightAir tempDewpointWater temp
2016-Aug-26 03:33N 22°20' E 114°07'0 0.1
2016-Aug-26 01:19N 22°20' E 114°08'0 0.0
2016-Aug-25 21:31N 22°20' E 114°08'0 0.0
2016-Aug-25 20:33N 22°20' E 114°08'0 0.0
2016-Aug-25 19:34N 22°20' E 114°08'0 0.0
2016-Aug-25 18:13N 22°20' E 114°08'0 0.0
2016-Aug-25 17:32N 22°20' E 114°08'0 0.0
2016-Aug-25 16:33N 22°20' E 114°08'0 0.0
2016-Aug-25 15:33N 22°20' E 114°08'1 1.2
2016-Aug-25 14:34N 22°19' E 114°07'19 9.6
2016-Aug-25 12:33N 22°07' E 114°23'8 8.5
2016-Aug-25 11:33N 21°60' E 114°26'10218.3
2016-Aug-25 06:00N 20°18' E 114°18'   050 / 101005.010.8 1.028.022.131.0
2016-Aug-22 09:34N 01°15' E 104°08'1717.4
2016-Aug-22 08:33N 01°11' E 103°51'5 5.3
2016-Aug-22 07:33N 01°15' E 103°47'0 0.0
2016-Aug-22 06:33N 01°15' E 103°47'0 0.0
2016-Aug-22 04:32N 01°15' E 103°47'0 0.0
2016-Aug-22 03:29N 01°15' E 103°47'0 0.0
2016-Aug-22 02:29N 01°15' E 103°47'0 0.0
2016-Aug-22 01:32N 01°15' E 103°47'0 0.0
2016-Aug-22 00:32N 01°15' E 103°47'0 0.0
2016-Aug-21 23:23N 01°15' E 103°47'0 0.0
2016-Aug-21 22:32N 01°15' E 103°47'0 0.0
2016-Aug-21 21:23N 01°15' E 103°47'0 0.0
2016-Aug-21 20:29N 01°15' E 103°47'0 0.0
2016-Aug-21 19:34N 01°15' E 103°47'0 0.1
2016-Aug-21 18:34N 01°15' E 103°47'3 2.8
2016-Aug-21 17:34N 01°13' E 103°48'6 4.3
2016-Aug-21 16:18N 01°15' E 103°53'0 0.1
2016-Aug-21 15:33N 01°15' E 103°53'0 0.0
2016-Aug-21 14:33N 01°15' E 103°53'0 0.0
2016-Aug-21 13:33N 01°15' E 103°53'0 0.1
2016-Aug-21 12:33N 01°15' E 103°53'0 0.1
2016-Aug-21 11:15N 01°15' E 103°54'0 0.0
2016-Aug-21 10:33N 01°15' E 103°54'0 0.1
2016-Aug-21 09:33N 01°15' E 103°54'0 0.0
2016-Aug-21 08:33N 01°15' E 103°54'0 0.0
2016-Aug-21 07:33N 01°15' E 103°54'0 0.0
2016-Aug-21 06:27N 01°15' E 103°54'0 0.0
2016-Aug-21 05:33N 01°15' E 103°54'0 0.0
2016-Aug-21 04:33N 01°15' E 103°54'0 0.1
2016-Aug-21 03:33N 01°15' E 103°53'0 0.1
2016-Aug-21 02:33N 01°15' E 103°53'0 0.1
2016-Aug-21 01:33N 01°15' E 103°53'0 0.1
2016-Aug-20 23:30N 01°15' E 103°53'0 0.1
2016-Aug-20 22:27N 01°15' E 103°54'0 0.0
2016-Aug-20 21:27N 01°15' E 103°54'0 0.1
2016-Aug-20 20:27N 01°15' E 103°54'0 0.0
2016-Aug-20 19:12N 01°15' E 103°54'0 0.0
2016-Aug-20 18:27N 01°15' E 103°54'0 0.1
2016-Aug-20 17:27N 01°15' E 103°54'2 2.5
2016-Aug-20 16:33N 01°13' E 103°53'7217.1
2016-Aug-20 12:21N 01°40' E 102°46'1721.1
2016-Aug-20 11:33N 01°46' E 102°31'  
2016-Aug-16 12:00N 09°48' E 075°18'   270 / 151010.010.8 1.027.021.027.0
Track history (hours):
 
Tides and Currents Weather Stations Pressure Air Temp Water Temp Dewpoint Dewpoint Depression Visibility Wind Speed Wind Dir Waves Ship Positions

APL Coral

Owner: APL Maritime Ltd., Bethesda, MD. More information available from US FCC via Universal Licensing System and Coast Guard Vessel Documentation Center.

Last reported at 2016-Aug-26 03:33 UTC. Time now 2016-Aug-26 06:36 UTC.
Position N 22°20' E 114°07'.

Length 275 m; draft 9.8 m.

Type: Cargo ship. MMSI: 367478280.

Date/timePositionNaut miles runAvg speedWind from/ knotsBaromVisibWave heightAir tempDewpointWater temp
2016-Aug-26 03:33N 22°20' E 114°07'0 0.1
2016-Aug-26 01:19N 22°20' E 114°08'0 0.0
2016-Aug-25 21:31N 22°20' E 114°08'0 0.0
2016-Aug-25 20:33N 22°20' E 114°08'0 0.0
2016-Aug-25 19:34N 22°20' E 114°08'0 0.0
2016-Aug-25 18:13N 22°20' E 114°08'0 0.0
2016-Aug-25 17:32N 22°20' E 114°08'0 0.0
2016-Aug-25 16:33N 22°20' E 114°08'0 0.0
2016-Aug-25 15:33N 22°20' E 114°08'1 1.2
2016-Aug-25 14:34N 22°19' E 114°07'19 9.6
2016-Aug-25 12:33N 22°07' E 114°23'8 8.5
2016-Aug-25 11:33N 21°60' E 114°26'10218.3
2016-Aug-25 06:00N 20°18' E 114°18'   050 / 101005.010.8 1.028.022.131.0
2016-Aug-22 09:34N 01°15' E 104°08'1717.4
2016-Aug-22 08:33N 01°11' E 103°51'5 5.3
2016-Aug-22 07:33N 01°15' E 103°47'0 0.0
2016-Aug-22 06:33N 01°15' E 103°47'0 0.0
2016-Aug-22 04:32N 01°15' E 103°47'0 0.0
2016-Aug-22 03:29N 01°15' E 103°47'0 0.0
2016-Aug-22 02:29N 01°15' E 103°47'0 0.0
2016-Aug-22 01:32N 01°15' E 103°47'0 0.0
2016-Aug-22 00:32N 01°15' E 103°47'0 0.0
2016-Aug-21 23:23N 01°15' E 103°47'0 0.0
2016-Aug-21 22:32N 01°15' E 103°47'0 0.0
2016-Aug-21 21:23N 01°15' E 103°47'0 0.0
2016-Aug-21 20:29N 01°15' E 103°47'0 0.0
2016-Aug-21 19:34N 01°15' E 103°47'0 0.1
2016-Aug-21 18:34N 01°15' E 103°47'3 2.8
2016-Aug-21 17:34N 01°13' E 103°48'6 4.3
2016-Aug-21 16:18N 01°15' E 103°53'0 0.1
2016-Aug-21 15:33N 01°15' E 103°53'0 0.0
2016-Aug-21 14:33N 01°15' E 103°53'0 0.0
2016-Aug-21 13:33N 01°15' E 103°53'0 0.1
2016-Aug-21 12:33N 01°15' E 103°53'0 0.1
2016-Aug-21 11:15N 01°15' E 103°54'0 0.0
2016-Aug-21 10:33N 01°15' E 103°54'0 0.1
2016-Aug-21 09:33N 01°15' E 103°54'0 0.0
2016-Aug-21 08:33N 01°15' E 103°54'0 0.0
2016-Aug-21 07:33N 01°15' E 103°54'0 0.0
2016-Aug-21 06:27N 01°15' E 103°54'0 0.0
2016-Aug-21 05:33N 01°15' E 103°54'0 0.0
2016-Aug-21 04:33N 01°15' E 103°54'0 0.1
2016-Aug-21 03:33N 01°15' E 103°53'0 0.1
2016-Aug-21 02:33N 01°15' E 103°53'0 0.1
2016-Aug-21 01:33N 01°15' E 103°53'0 0.1
2016-Aug-20 23:30N 01°15' E 103°53'0 0.1
2016-Aug-20 22:27N 01°15' E 103°54'0 0.0
2016-Aug-20 21:27N 01°15' E 103°54'0 0.1
2016-Aug-20 20:27N 01°15' E 103°54'0 0.0
2016-Aug-20 19:12N 01°15' E 103°54'0 0.0
2016-Aug-20 18:27N 01°15' E 103°54'0 0.1
2016-Aug-20 17:27N 01°15' E 103°54'2 2.5
2016-Aug-20 16:33N 01°13' E 103°53'7217.1
2016-Aug-20 12:21N 01°40' E 102°46'1721.1
2016-Aug-20 11:33N 01°46' E 102°31'  
2016-Aug-16 12:00N 09°48' E 075°18'   270 / 151010.010.8 1.027.021.027.0

Dump ship's entire track history